Waverly, Pennsylvania
Current Conditions -  °F | °C
As of 1:54 AM on Saturday 20 Dec 2014 (Local Time) from KAVP Reporting Station
Overcast Overcast  
Wind Chill: -6°   Ceiling: 2000
Heat Index: -2°   Visibility: 10mi
Dew Point: -7°   Wind: 8mph
Humidity: 67%   Direction: 350°N
Pressure: 30.17"   Gusts: NA
Location:  41.53°N, 75.71°W
Report Text: KAVP 200654Z AUTO 35007KT 10SM OVC020 M02/M07 A3017 RMK AO2 SLP226 T10171072
Loading
Personal Weather Stations






























Interactive Weather Map New forecast layout! Learn more

10-Day Weather Forecast

Advertisements
Track Severe Weather on mobile